NCAR-RAP Real-Time Weather Data

Output produced by METARs form (16 August 2018  19:23 UTC)
found at http://weather.rap.ucar.edu/surface/
 
Conditions at: KPGD observed 16 August 2018  18:53 UTC
Temperature: 34.4°C (94°F)
Dewpoint: 21.1°C (70°F) [RH = 46%]
Pressure (altimeter): 30.14 inches Hg (1020.7 mb)
[Sea-level pressure: 1020.6 mb]
Winds: from the ESE (110 degrees) at 10 MPH (9 knots; 4.7 m/s)
Visibility: 10 or more miles (16+ km)
Ceiling: at least 12,000 feet AGL
Clouds: few clouds at 5000 feet AGL
few clouds at 10000 feet AGL
Present Weather: automated observation with no human augmentation;
there may or may not be significant weather present at this time
KPGD 161853Z AUTO 11009KT 10SM FEW050 FEW100 34/21 A3014 RMK AO2 SLP206 T03440211

Conditions at: KPGD observed 16 August 2018  17:53 UTC
Temperature: 32.8°C (91°F)
Dewpoint: 21.7°C (71°F) [RH = 52%]
Pressure (altimeter): 30.16 inches Hg (1021.4 mb)
[Sea-level pressure: 1021.2 mb]
Winds: from the SE (140 degrees) at 9 MPH (8 knots; 4.2 m/s)
Visibility: 10 or more miles (16+ km)
Ceiling: at least 12,000 feet AGL
Clouds: few clouds at 4600 feet AGL
scattered clouds at 6000 feet AGL
Present Weather: no significant weather observed at this time
KPGD 161753Z 14008KT 10SM FEW046 SCT060 33/22 A3016 RMK AO2 SLP212 T03280217 10339 20256 58004

Conditions at: KPGD observed 16 August 2018  16:53 UTC
Temperature: 33.3°C (92°F)
Dewpoint: 22.8°C (73°F) [RH = 54%]
Pressure (altimeter): 30.16 inches Hg (1021.4 mb)
[Sea-level pressure: 1021.4 mb]
Winds: from the SE (130 degrees) at 7 MPH (6 knots; 3.1 m/s)
Visibility: 10 or more miles (16+ km)
Ceiling: at least 12,000 feet AGL
Clouds: scattered clouds at 3800 feet AGL
Present Weather: no significant weather observed at this time
KPGD 161653Z 13006KT 10SM SCT038 33/23 A3016 RMK AO2 SLP214 T03330228

Conditions at: KPGD observed 16 August 2018  15:53 UTC
Temperature: 32.2°C (90°F)
Dewpoint: 22.8°C (73°F) [RH = 58%]
Pressure (altimeter): 30.17 inches Hg (1021.8 mb)
[Sea-level pressure: 1021.6 mb]
Winds: from the SE (140 degrees) at 12 MPH (10 knots; 5.2 m/s)
Visibility: 10 or more miles (16+ km)
Ceiling: at least 12,000 feet AGL
Clouds: few clouds at 3200 feet AGL
Present Weather: no significant weather observed at this time
KPGD 161553Z 14010KT 10SM FEW032 32/23 A3017 RMK AO2 SLP216 T03220228

Conditions at: KPGD observed 16 August 2018  14:53 UTC
Temperature: 31.1°C (88°F)
Dewpoint: 22.8°C (73°F) [RH = 61%]
Pressure (altimeter): 30.17 inches Hg (1021.8 mb)
[Sea-level pressure: 1021.6 mb]
Winds: from the SE (140 degrees) at 14 MPH (12 knots; 6.2 m/s)
Visibility: 10 or more miles (16+ km)
Ceiling: at least 12,000 feet AGL
Clouds: sky clear below 12,000 feet AGL
Present Weather: no significant weather observed at this time
KPGD 161453Z 14012KT 10SM CLR 31/23 A3017 RMK AO2 SLP216 T03110228 53007

Conditions at: KPGD observed 16 August 2018  13:53 UTC
Temperature: 30.0°C (86°F)
Dewpoint: 23.9°C (75°F) [RH = 70%]
Pressure (altimeter): 30.15 inches Hg (1021.1 mb)
[Sea-level pressure: 1021.1 mb]
Winds: from the SE (130 degrees) at 13 MPH (11 knots; 5.7 m/s)
Visibility: 10 or more miles (16+ km)
Ceiling: at least 12,000 feet AGL
Clouds: sky clear below 12,000 feet AGL
Present Weather: no significant weather observed at this time
KPGD 161353Z 13011KT 10SM CLR 30/24 A3015 RMK AO2 SLP211 T03000239

Conditions at: KPGD observed 16 August 2018  12:53 UTC
Temperature: 27.8°C (82°F)
Dewpoint: 24.4°C (76°F) [RH = 82%]
Pressure (altimeter): 30.14 inches Hg (1020.7 mb)
[Sea-level pressure: 1020.7 mb]
Winds: from the ESE (110 degrees) at 10 MPH (9 knots; 4.7 m/s)
Visibility: 10 or more miles (16+ km)
Ceiling: at least 12,000 feet AGL
Clouds: sky clear below 12,000 feet AGL
Present Weather: no significant weather observed at this time
KPGD 161253Z 11009KT 10SM CLR 28/24 A3014 RMK AO2 SLP207 T02780244

Conditions at: KPGD observed 16 August 2018  11:53 UTC
Temperature: 25.6°C (78°F)
Dewpoint: 23.3°C (74°F) [RH = 87%]
Pressure (altimeter): 30.15 inches Hg (1021.1 mb)
[Sea-level pressure: 1020.9 mb]
Winds: from the E (100 degrees) at 7 MPH (6 knots; 3.1 m/s)
Visibility: 10 or more miles (16+ km)
Ceiling: at least 12,000 feet AGL
Clouds: sky clear below 12,000 feet AGL
Present Weather: no significant weather observed at this time
KPGD 161153Z 10006KT 10SM CLR 26/23 A3015 RMK AO2 SLP209 70074 T02560233 10256 20239 53014

Conditions at: KPGD observed 16 August 2018  10:53 UTC
Temperature: 24.4°C (76°F)
Dewpoint: 22.2°C (72°F) [RH = 88%]
Pressure (altimeter): 30.12 inches Hg (1020.1 mb)
[Sea-level pressure: 1020.0 mb]
Winds: from the ENE (60 degrees) at 5 MPH (4 knots; 2.1 m/s)
Visibility: 10 or more miles (16+ km)
Ceiling: at least 12,000 feet AGL
Clouds: sky clear below 12,000 feet AGL
Present Weather: no significant weather observed at this time
KPGD 161053Z 06004KT 10SM CLR 24/22 A3012 RMK AO2 SLP200 T02440222

Conditions at: KPGD observed 16 August 2018  09:53 UTC
Temperature: 24.4°C (76°F)
Dewpoint: 22.2°C (72°F) [RH = 88%]
Pressure (altimeter): 30.10 inches Hg (1019.4 mb)
[Sea-level pressure: 1019.4 mb]
Winds: from the ENE (70 degrees) at 7 MPH (6 knots; 3.1 m/s)
Visibility: 10 or more miles (16+ km)
Ceiling: at least 12,000 feet AGL
Clouds: sky clear below 12,000 feet AGL
Present Weather:
SOME DATA ABOVE MAY BE INACCURATE!!!
"$" is an indication the sensor requires maintenance
KPGD 160953Z 07006KT 10SM CLR 24/22 A3010 RMK AO2 SLP194 T02440222 $

Conditions at: KPGD observed 16 August 2018  08:53 UTC
Temperature: 24.4°C (76°F)
Dewpoint: 21.7°C (71°F) [RH = 85%]
Pressure (altimeter): 30.11 inches Hg (1019.7 mb)
[Sea-level pressure: 1019.6 mb]
Winds: from the E (100 degrees) at 3 MPH (3 knots; 1.6 m/s)
Visibility: 10 or more miles (16+ km)
Ceiling: at least 12,000 feet AGL
Clouds: sky clear below 12,000 feet AGL
Present Weather:
SOME DATA ABOVE MAY BE INACCURATE!!!
"$" is an indication the sensor requires maintenance
KPGD 160853Z AUTO 10003KT 10SM CLR 24/22 A3011 RMK AO2 SLP196 T02440217 55003 $

Conditions at: KPGD observed 16 August 2018  07:53 UTC
Temperature: 24.4°C (76°F)
Dewpoint: 22.2°C (72°F) [RH = 88%]
Pressure (altimeter): 30.10 inches Hg (1019.4 mb)
[Sea-level pressure: 1019.2 mb]
Winds: from the NE (50 degrees) at 7 MPH (6 knots; 3.1 m/s)
Visibility: 10 or more miles (16+ km)
Ceiling: at least 12,000 feet AGL
Clouds: sky clear below 12,000 feet AGL
Present Weather:
SOME DATA ABOVE MAY BE INACCURATE!!!
"$" is an indication the sensor requires maintenance
KPGD 160753Z AUTO 05006KT 10SM CLR 24/22 A3010 RMK AO2 SLP192 T02440222 $

Conditions at: KPGD observed 16 August 2018  06:53 UTC
Temperature: 24.4°C (76°F)
Dewpoint: 22.8°C (73°F) [RH = 91%]
Pressure (altimeter): 30.11 inches Hg (1019.7 mb)
[Sea-level pressure: 1019.5 mb]
Winds: from the E (80 degrees) at 5 MPH (4 knots; 2.1 m/s)
Visibility: 10 or more miles (16+ km)
Ceiling: at least 12,000 feet AGL
Clouds: sky clear below 12,000 feet AGL
Present Weather:
SOME DATA ABOVE MAY BE INACCURATE!!!
"$" is an indication the sensor requires maintenance
KPGD 160653Z AUTO 08004KT 10SM CLR 24/23 A3011 RMK AO2 SLP195 T02440228 $

Conditions at: KPGD observed 16 August 2018  05:53 UTC
Temperature: 26.1°C (79°F)
Dewpoint: 22.8°C (73°F) [RH = 82%]
Pressure (altimeter): 30.12 inches Hg (1020.1 mb)
[Sea-level pressure: 1019.9 mb]
Winds: from the NE (40 degrees) at 3 MPH (3 knots; 1.6 m/s)
Visibility: 10 or more miles (16+ km)
Ceiling: at least 12,000 feet AGL
Clouds: few clouds at 11000 feet AGL
Present Weather:
SOME DATA ABOVE MAY BE INACCURATE!!!
"$" is an indication the sensor requires maintenance
KPGD 160553Z AUTO 04003KT 10SM FEW110 26/23 A3012 RMK AO2 RAE39 SLP199 P0003 60070 T02610228 10267 20239 58005 $

Conditions at: KPGD observed 16 August 2018  05:00 UTC
Temperature: 24.4°C (76°F)
Dewpoint: 22.2°C (72°F) [RH = 88%]
Pressure (altimeter): 30.15 inches Hg (1021.1 mb)
Winds: calm
Visibility: 10 or more miles (16+ km)
Ceiling: 11000 feet AGL
Clouds: broken clouds at 11000 feet AGL
Present Weather: -RA  (light rain)
SOME DATA ABOVE MAY BE INACCURATE!!!
"$" is an indication the sensor requires maintenance
KPGD 160500Z AUTO 00000KT 10SM -RA BKN110 24/22 A3015 RMK AO2 LTG DSNT N AND W P0000 T02440222 $

Conditions at: KPGD observed 16 August 2018  04:53 UTC
Temperature: 24.4°C (76°F)
Dewpoint: 22.2°C (72°F) [RH = 88%]
Pressure (altimeter): 30.15 inches Hg (1021.1 mb)
[Sea-level pressure: 1021.0 mb]
Winds: calm
Visibility: 10 or more miles (16+ km)
Ceiling: 11000 feet AGL
Clouds: few clouds at 4900 feet AGL
few clouds at 7000 feet AGL
overcast cloud deck at 11000 feet AGL
Present Weather: VCTS -RA  (thunderstorm in vicinity, light rain)
SOME DATA ABOVE MAY BE INACCURATE!!!
"$" is an indication the sensor requires maintenance
KPGD 160453Z AUTO 00000KT 10SM VCTS -RA FEW049 FEW070 OVC110 24/22 A3015 RMK AO2 LTG DSNT W-N TSE09E49 SLP210 P0060 T02440222 403440233 $

Conditions at: KPGD observed 16 August 2018  04:43 UTC
Temperature: 24.4°C (76°F)
Dewpoint: 22.2°C (72°F) [RH = 88%]
Pressure (altimeter): 30.15 inches Hg (1021.1 mb)
Winds: calm
Visibility: 10 or more miles (16+ km)
Ceiling: 7000 feet AGL
Clouds: scattered clouds at 3100 feet AGL
broken clouds at 7000 feet AGL
broken clouds at 10000 feet AGL
Present Weather: -TSRA  (light rain associated with thunderstorm(s))
SOME DATA ABOVE MAY BE INACCURATE!!!
"$" is an indication the sensor requires maintenance
KPGD 160443Z AUTO 00000KT 10SM -TSRA SCT031 BKN070 BKN100 24/22 A3015 RMK AO2 LTG DSNT N AND NW TSE09 P0059 T02440222 $

Conditions at: KPGD observed 16 August 2018  04:34 UTC
Temperature: 23.9°C (75°F)
Dewpoint: 22.2°C (72°F) [RH = 90%]
Pressure (altimeter): 30.16 inches Hg (1021.4 mb)
Winds: from the SE (130 degrees) at 6 MPH (5 knots; 2.6 m/s)
Visibility: 4 miles (6 km)
Ceiling: 2900 feet AGL
Clouds: few clouds at 800 feet AGL
broken clouds at 2900 feet AGL
overcast cloud deck at 11000 feet AGL
Present Weather: TSRA BR  (rain associated with thunderstorm(s), mist)
SOME DATA ABOVE MAY BE INACCURATE!!!
"$" is an indication the sensor requires maintenance
KPGD 160434Z AUTO 13005KT 4SM TSRA BR FEW008 BKN029 OVC110 24/22 A3016 RMK AO2 TSE09 P0059 T02390222 $

Conditions at: KPGD observed 16 August 2018  04:30 UTC
Temperature: 23.9°C (75°F)
Dewpoint: 22.2°C (72°F) [RH = 90%]
Pressure (altimeter): 30.16 inches Hg (1021.4 mb)
Winds: from the SSE (150 degrees) at 3 MPH (3 knots; 1.6 m/s)
Visibility: 3 miles (5 km)
Ceiling: 3100 feet AGL
Clouds: few clouds at 1100 feet AGL
broken clouds at 3100 feet AGL
overcast cloud deck at 7000 feet AGL
Present Weather: +TSRA BR  (heavy rain associated with thunderstorm(s), mist)
SOME DATA ABOVE MAY BE INACCURATE!!!
"$" is an indication the sensor requires maintenance
KPGD 160430Z AUTO 15003KT 3SM +TSRA BR FEW011 BKN031 OVC070 24/22 A3016 RMK AO2 TSE09 P0058 T02390222 $

Conditions at: KPGD observed 16 August 2018  04:25 UTC
Temperature: 23.9°C (75°F)
Dewpoint: 22.8°C (73°F) [RH = 94%]
Pressure (altimeter): 30.16 inches Hg (1021.4 mb)
Winds: variable direction winds at 6 MPH (5 knots; 2.6 m/s)
Visibility: 1.50 miles (2.41 km)
Ceiling: 2500 feet AGL
Clouds: few clouds at 1100 feet AGL
broken clouds at 2500 feet AGL
overcast cloud deck at 7000 feet AGL
Present Weather: +TSRA BR  (heavy rain associated with thunderstorm(s), mist)
SOME DATA ABOVE MAY BE INACCURATE!!!
"$" is an indication the sensor requires maintenance
KPGD 160425Z AUTO VRB05KT 1 1/2SM +TSRA BR FEW011 BKN025 OVC070 24/23 A3016 RMK AO2 TSE09 P0056 T02390228 $

Conditions at: KPGD observed 16 August 2018  04:16 UTC
Temperature: 24.4°C (76°F)
Dewpoint: 22.2°C (72°F) [RH = 88%]
Pressure (altimeter): 30.17 inches Hg (1021.8 mb)
Winds: from the SE (140 degrees) at 10 MPH (9 knots; 4.7 m/s)
Visibility: 0.75 miles (1.21 km)
Ceiling: 2000 feet AGL
Clouds: few clouds at 900 feet AGL
broken clouds at 2000 feet AGL
overcast cloud deck at 5500 feet AGL
Present Weather: +TSRA BR  (heavy rain associated with thunderstorm(s), mist)
SOME DATA ABOVE MAY BE INACCURATE!!!
"$" is an indication the sensor requires maintenance
KPGD 160416Z AUTO 14009KT 3/4SM +TSRA BR FEW009 BKN020 OVC055 24/22 A3017 RMK AO2 LTG DSNT N AND NE AND S TSE09 P0043 T02440222 $

Conditions at: KPGD observed 16 August 2018  04:09 UTC
Temperature: 25.0°C (77°F)
Dewpoint: 22.8°C (73°F) [RH = 88%]
Pressure (altimeter): 30.17 inches Hg (1021.8 mb)
Winds: from the SE (130 degrees) at 10 MPH (9 knots; 4.7 m/s)
Visibility: 1.75 miles (2.82 km)
Ceiling: 1700 feet AGL
Clouds: scattered clouds at 1100 feet AGL
broken clouds at 1700 feet AGL
overcast cloud deck at 5500 feet AGL
Present Weather: +RA BR  (heavy rain, mist)
SOME DATA ABOVE MAY BE INACCURATE!!!
"$" is an indication the sensor requires maintenance
KPGD 160409Z AUTO 13009KT 1 3/4SM +RA BR SCT011 BKN017 OVC055 25/23 A3017 RMK AO2 TSE09 PRESRR P0018 T02500228 $

Conditions at: KPGD observed 16 August 2018  03:53 UTC
Temperature: 25.6°C (78°F)
Dewpoint: 22.8°C (73°F) [RH = 85%]
Pressure (altimeter): 30.15 inches Hg (1021.1 mb)
[Sea-level pressure: 1021.0 mb]
Winds: from the E (80 degrees) at 10 MPH (9 knots; 4.7 m/s)
Visibility: 5 miles (8 km)
Ceiling: 5000 feet AGL
Clouds: broken clouds at 5000 feet AGL
broken clouds at 6500 feet AGL
broken clouds at 7500 feet AGL
Present Weather: TSRA  (rain associated with thunderstorm(s))
SOME DATA ABOVE MAY BE INACCURATE!!!
"$" is an indication the sensor requires maintenance
KPGD 160353Z AUTO 08009KT 5SM TSRA BKN050 BKN065 BKN075 26/23 A3015 RMK AO2 LTG DSNT ALQDS RAB46 TSB47 SLP210 P0002 T02560228 $

Conditions at: KPGD observed 16 August 2018  03:44 UTC
Temperature: 25.6°C (78°F)
Dewpoint: 22.8°C (73°F) [RH = 85%]
Pressure (altimeter): 30.14 inches Hg (1020.7 mb)
Winds: from the NE (50 degrees) at 7 MPH (6 knots; 3.1 m/s)
Visibility: 10 or more miles (16+ km)
Ceiling: 6000 feet AGL
Clouds: few clouds at 1000 feet AGL
broken clouds at 6000 feet AGL
Present Weather: VCTS  (thunderstorm in vicinity)
SOME DATA ABOVE MAY BE INACCURATE!!!
"$" is an indication the sensor requires maintenance
KPGD 160344Z AUTO 05006KT 10SM VCTS FEW010 BKN060 26/23 A3014 RMK AO2 LTG DSNT N AND NE AND S T02560228 $

Conditions at: KPGD observed 16 August 2018  02:53 UTC
Temperature: 26.1°C (79°F)
Dewpoint: 22.8°C (73°F) [RH = 82%]
Pressure (altimeter): 30.13 inches Hg (1020.4 mb)
[Sea-level pressure: 1020.4 mb]
Winds: from the ESE (120 degrees) at 9 MPH (8 knots; 4.2 m/s)
Visibility: 10 or more miles (16+ km)
Ceiling: 10000 feet AGL
Clouds: few clouds at 5000 feet AGL
few clouds at 6000 feet AGL
overcast cloud deck at 10000 feet AGL
Present Weather:
SOME DATA ABOVE MAY BE INACCURATE!!!
"$" is an indication the sensor requires maintenance
KPGD 160253Z AUTO 12008KT 10SM FEW050 FEW060 OVC100 26/23 A3013 RMK AO2 LTG DSNT N-E SLP204 60005 T02610228 52010 $

Conditions at: KPGD observed 16 August 2018  02:02 UTC
Temperature: 26.1°C (79°F)
Dewpoint: 22.8°C (73°F) [RH = 82%]
Pressure (altimeter): 30.12 inches Hg (1020.1 mb)
Winds: from the ESE (120 degrees) at 3 MPH (3 knots; 1.6 m/s)
Visibility: 10 or more miles (16+ km)
Ceiling: 5500 feet AGL
Clouds: broken clouds at 5500 feet AGL
overcast cloud deck at 9000 feet AGL
Present Weather:
SOME DATA ABOVE MAY BE INACCURATE!!!
"$" is an indication the sensor requires maintenance
KPGD 160202Z AUTO 12003KT 10SM BKN055 OVC090 26/23 A3012 RMK AO2 LTG DSNT NE-SE T02610228 $

Conditions at: KPGD observed 16 August 2018  01:53 UTC
Temperature: 25.6°C (78°F)
Dewpoint: 22.8°C (73°F) [RH = 85%]
Pressure (altimeter): 30.12 inches Hg (1020.1 mb)
[Sea-level pressure: 1019.9 mb]
Winds: from the E (100 degrees) at 3 MPH (3 knots; 1.6 m/s)
Visibility: 10 or more miles (16+ km)
Ceiling: 8500 feet AGL
Clouds: scattered clouds at 5500 feet AGL
broken clouds at 8500 feet AGL
Present Weather: VCTS  (thunderstorm in vicinity)
SOME DATA ABOVE MAY BE INACCURATE!!!
"$" is an indication the sensor requires maintenance
KPGD 160153Z AUTO 10003KT 10SM VCTS SCT055 BKN085 26/23 A3012 RMK AO2 LTG DSNT NE-SE RAB17E29 SLP199 P0000 T02560228 $

Conditions at: KPGD observed 16 August 2018  01:21 UTC
Temperature: 25.6°C (78°F)
Dewpoint: 22.2°C (72°F) [RH = 82%]
Pressure (altimeter): 30.11 inches Hg (1019.7 mb)
Winds: from the ENE (60 degrees) at 3 MPH (3 knots; 1.6 m/s)
Visibility: 10 or more miles (16+ km)
Ceiling: 9000 feet AGL
Clouds: few clouds at 5000 feet AGL
broken clouds at 9000 feet AGL
overcast cloud deck at 12000 feet AGL
Present Weather: -RA  (light rain)
SOME DATA ABOVE MAY BE INACCURATE!!!
"$" is an indication the sensor requires maintenance
KPGD 160121Z AUTO 06003KT 10SM -RA FEW050 BKN090 OVC120 26/22 A3011 RMK AO2 LTG DSNT E AND SE RAB17 P0000 T02560222 $

Conditions at: KPGD observed 16 August 2018  00:53 UTC
Temperature: 25.6°C (78°F)
Dewpoint: 22.2°C (72°F) [RH = 82%]
Pressure (altimeter): 30.11 inches Hg (1019.7 mb)
[Sea-level pressure: 1019.8 mb]
Winds: from the E (90 degrees) at 8 MPH (7 knots; 3.6 m/s)
Visibility: 10 or more miles (16+ km)
Ceiling: 10000 feet AGL
Clouds: few clouds at 6000 feet AGL
few clouds at 7500 feet AGL
overcast cloud deck at 10000 feet AGL
Present Weather: VCTS  (thunderstorm in vicinity)
SOME DATA ABOVE MAY BE INACCURATE!!!
"$" is an indication the sensor requires maintenance
KPGD 160053Z AUTO 09007KT 10SM VCTS FEW060 FEW075 OVC100 26/22 A3011 RMK AO2 LTG DSNT E AND SE RAE35 TSE09 SLP198 P0005 T02560222 $

Conditions at: KPGD observed 16 August 2018  00:37 UTC
Temperature: 25.0°C (77°F)
Dewpoint: 21.7°C (71°F) [RH = 82%]
Pressure (altimeter): 30.11 inches Hg (1019.7 mb)
Winds: from the N (10 degrees) at 8 MPH (7 knots; 3.6 m/s)
Visibility: 10 or more miles (16+ km)
Ceiling: 8500 feet AGL
Clouds: few clouds at 6000 feet AGL
overcast cloud deck at 8500 feet AGL
Present Weather: VCTS  (thunderstorm in vicinity)
SOME DATA ABOVE MAY BE INACCURATE!!!
"$" is an indication the sensor requires maintenance
KPGD 160037Z 01007KT 10SM VCTS FEW060 OVC085 25/22 A3011 RMK AO2 LTG DSNT NE AND E RAE35 TSE09 P0005 T02500217 $

Conditions at: KPGD observed 16 August 2018  00:13 UTC
Temperature: 24.4°C (76°F)
Dewpoint: 21.7°C (71°F) [RH = 85%]
Pressure (altimeter): 30.10 inches Hg (1019.4 mb)
Winds: from the N (360 degrees) at 12 MPH (10 knots; 5.2 m/s)
Visibility: 5 miles (8 km)
Ceiling: 8000 feet AGL
Clouds: few clouds at 5000 feet AGL
broken clouds at 8000 feet AGL
overcast cloud deck at 11000 feet AGL
Present Weather: RA  (rain)
SOME DATA ABOVE MAY BE INACCURATE!!!
"$" is an indication the sensor requires maintenance
KPGD 160013Z 36010KT 5SM RA FEW050 BKN080 OVC110 24/22 A3010 RMK AO2 LTG DSNT N TSE09 P0004 T02440217 $

Conditions at: KPGD observed 15 August 2018  23:53 UTC
Temperature: 24.4°C (76°F)
Dewpoint: 21.7°C (71°F) [RH = 85%]
Pressure (altimeter): 30.10 inches Hg (1019.4 mb)
[Sea-level pressure: 1019.3 mb]
Winds: from the NNE (20 degrees) at 15 MPH (13 knots; 6.8 m/s)
Visibility: 6 miles (10 km)
Ceiling: 7500 feet AGL
Clouds: few clouds at 4200 feet AGL
scattered clouds at 6000 feet AGL
broken clouds at 7500 feet AGL
Present Weather: TSRA  (rain associated with thunderstorm(s))
SOME DATA ABOVE MAY BE INACCURATE!!!
"$" is an indication the sensor requires maintenance
KPGD 152353Z 02013KT 6SM TSRA FEW042 SCT060 BKN075 24/22 A3010 RMK AO2 WSHFT 2315 LTG DSNT N AND NE RAB22 TSB2256 SLP193 P0004 60004 T02440217 10344 20244 53023 $

Conditions at: KPGD observed 15 August 2018  23:35 UTC
Temperature: 25.0°C (77°F)
Dewpoint: 21.7°C (71°F) [RH = 82%]
Pressure (altimeter): 30.09 inches Hg (1019.0 mb)
Winds: from the NNE (30 degrees) at 18 MPH (16 knots; 8.3 m/s)
Visibility: 10 or more miles (16+ km)
Ceiling: 3900 feet AGL
Clouds: broken clouds at 3900 feet AGL
overcast cloud deck at 7500 feet AGL
Present Weather: -TSRA  (light rain associated with thunderstorm(s))
SOME DATA ABOVE MAY BE INACCURATE!!!
"$" is an indication the sensor requires maintenance
KPGD 152335Z 03016KT 10SM -TSRA BKN039 OVC075 25/22 A3009 RMK AO2 WSHFT 2315 LTG DSNT N AND NE RAB22 TSB2256 P0001 T02500217 $

Conditions at: KPGD observed 15 August 2018  23:02 UTC
Temperature: 30.6°C (87°F)
Dewpoint: 22.8°C (73°F) [RH = 63%]
Pressure (altimeter): 30.06 inches Hg (1018.0 mb)
Winds: from the SSE (160 degrees) at 10 MPH (9 knots; 4.7 m/s)
Visibility: 10 or more miles (16+ km)
Ceiling: 3900 feet AGL
Clouds: broken clouds at 3900 feet AGL
broken clouds at 6000 feet AGL
overcast cloud deck at 7000 feet AGL
Present Weather: TS  (thunderstorm)
SOME DATA ABOVE MAY BE INACCURATE!!!
"$" is an indication the sensor requires maintenance
KPGD 152302Z 16009KT 10SM TS BKN039 BKN060 OVC070 31/23 A3006 RMK AO2 LTG DSNT N-E TSB2256 T03060228 $

Conditions at: KPGD observed 15 August 2018  22:53 UTC
Temperature: 31.7°C (89°F)
Dewpoint: 22.2°C (72°F) [RH = 57%]
Pressure (altimeter): 30.05 inches Hg (1017.7 mb)
[Sea-level pressure: 1017.5 mb]
Winds: from the SW (220 degrees) at 12 MPH (10 knots; 5.2 m/s)
Visibility: 10 or more miles (16+ km)
Ceiling: 6000 feet AGL
Clouds: few clouds at 3900 feet AGL
broken clouds at 6000 feet AGL
Present Weather: VCTS  (thunderstorm in vicinity)
SOME DATA ABOVE MAY BE INACCURATE!!!
"$" is an indication the sensor requires maintenance
KPGD 152253Z 22010KT 10SM VCTS FEW039 BKN060 32/22 A3005 RMK AO2 LTG DSNT NE SLP175 T03170222 $

Conditions at: KPGD observed 15 August 2018  22:18 UTC
Temperature: 33.3°C (92°F)
Dewpoint: 21.7°C (71°F) [RH = 51%]
Pressure (altimeter): 30.05 inches Hg (1017.7 mb)
Winds: from the W (280 degrees) at 7 MPH (6 knots; 3.1 m/s)
Visibility: 10 or more miles (16+ km)
Ceiling: at least 12,000 feet AGL
Clouds: sky clear below 12,000 feet AGL
Present Weather: VCTS  (thunderstorm in vicinity)
SOME DATA ABOVE MAY BE INACCURATE!!!
"$" is an indication the sensor requires maintenance
KPGD 152218Z 28006KT 10SM VCTS CLR 33/22 A3005 RMK AO2 LTG DSNT E-S T03330217 $

Conditions at: KPGD observed 15 August 2018  21:53 UTC
Temperature: 33.9°C (93°F)
Dewpoint: 22.2°C (72°F) [RH = 51%]
Pressure (altimeter): 30.04 inches Hg (1017.4 mb)
[Sea-level pressure: 1017.3 mb]
Winds: from the W (280 degrees) at 10 MPH (9 knots; 4.7 m/s)
Visibility: 10 or more miles (16+ km)
Ceiling: at least 12,000 feet AGL
Clouds: sky clear below 12,000 feet AGL
Present Weather:
SOME DATA ABOVE MAY BE INACCURATE!!!
"$" is an indication the sensor requires maintenance
KPGD 152153Z 28009KT 10SM CLR 34/22 A3004 RMK AO2 LTG DSNT E-S SLP173 T03390222 $

Conditions at: KPGD observed 15 August 2018  20:53 UTC
Temperature: 33.3°C (92°F)
Dewpoint: 20.6°C (69°F) [RH = 47%]
Pressure (altimeter): 30.03 inches Hg (1017.0 mb)
[Sea-level pressure: 1017.0 mb]
Winds: from the WSW (240 degrees) at 6 MPH (5 knots; 2.6 m/s)
Visibility: 10 or more miles (16+ km)
Ceiling: at least 12,000 feet AGL
Clouds: sky clear below 12,000 feet AGL
Present Weather:
SOME DATA ABOVE MAY BE INACCURATE!!!
"$" is an indication the sensor requires maintenance
KPGD 152053Z 24005KT 10SM CLR 33/21 A3003 RMK AO2 LTG DSNT SE AND S AND NW SLP170 T03330206 58020 $

Conditions at: KPGD observed 15 August 2018  19:53 UTC
Temperature: 33.9°C (93°F)
Dewpoint: 19.4°C (67°F) [RH = 43%]
Pressure (altimeter): 30.06 inches Hg (1018.0 mb)
[Sea-level pressure: 1018.0 mb]
Winds: variable direction winds at 7 MPH (6 knots; 3.1 m/s)
Visibility: 10 or more miles (16+ km)
Ceiling: at least 12,000 feet AGL
Clouds: sky clear below 12,000 feet AGL
Present Weather:
SOME DATA ABOVE MAY BE INACCURATE!!!
"$" is an indication the sensor requires maintenance
KPGD 151953Z VRB06KT 10SM CLR 34/19 A3006 RMK AO2 LTG DSNT N SLP180 T03390194 $